sensor_id;sensor_type;location;lat;lon;timestamp;temperature;humidity
52127;DHT22;38120;53.176;6.614;2023-07-29T00:01:59;18.50;99.90
52127;DHT22;38120;53.176;6.614;2023-07-29T00:04:24;18.50;99.90
52127;DHT22;38120;53.176;6.614;2023-07-29T00:06:50;18.50;99.90
52127;DHT22;38120;53.176;6.614;2023-07-29T00:09:16;18.50;99.90
52127;DHT22;38120;53.176;6.614;2023-07-29T00:11:41;18.50;99.90
52127;DHT22;38120;53.176;6.614;2023-07-29T00:14:07;18.50;99.90
52127;DHT22;38120;53.176;6.614;2023-07-29T00:16:33;18.50;99.90
52127;DHT22;38120;53.176;6.614;2023-07-29T00:18:58;18.50;99.90
52127;DHT22;38120;53.176;6.614;2023-07-29T00:21:24;18.50;99.90
52127;DHT22;38120;53.176;6.614;2023-07-29T00:23:50;18.50;99.90
52127;DHT22;38120;53.176;6.614;2023-07-29T00:26:15;18.50;99.90
52127;DHT22;38120;53.176;6.614;2023-07-29T00:28:41;18.50;99.90
52127;DHT22;38120;53.176;6.614;2023-07-29T00:31:07;18.50;99.90
52127;DHT22;38120;53.176;6.614;2023-07-29T00:33:32;18.50;99.90
52127;DHT22;38120;53.176;6.614;2023-07-29T00:35:58;18.50;99.90
52127;DHT22;38120;53.176;6.614;2023-07-29T00:38:27;18.50;99.90
52127;DHT22;38120;53.176;6.614;2023-07-29T00:40:53;18.50;99.90
52127;DHT22;38120;53.176;6.614;2023-07-29T00:43:18;18.50;99.90
52127;DHT22;38120;53.176;6.614;2023-07-29T00:45:44;18.50;99.90
52127;DHT22;38120;53.176;6.614;2023-07-29T00:48:10;18.50;99.90
52127;DHT22;38120;53.176;6.614;2023-07-29T00:50:36;18.50;99.90
52127;DHT22;38120;53.176;6.614;2023-07-29T00:53:02;18.50;99.90
52127;DHT22;38120;53.176;6.614;2023-07-29T00:55:28;18.50;99.90
52127;DHT22;38120;53.176;6.614;2023-07-29T00:57:54;18.50;99.90
52127;DHT22;38120;53.176;6.614;2023-07-29T01:00:21;18.40;99.90
52127;DHT22;38120;53.176;6.614;2023-07-29T01:02:47;18.40;99.90
52127;DHT22;38120;53.176;6.614;2023-07-29T01:05:14;18.40;99.90
52127;DHT22;38120;53.176;6.614;2023-07-29T01:07:47;18.40;99.90
52127;DHT22;38120;53.176;6.614;2023-07-29T01:10:40;18.40;99.90
52127;DHT22;38120;53.176;6.614;2023-07-29T01:13:22;18.40;99.90
52127;DHT22;38120;53.176;6.614;2023-07-29T01:15:55;18.30;99.90
52127;DHT22;38120;53.176;6.614;2023-07-29T01:18:32;18.30;99.90
52127;DHT22;38120;53.176;6.614;2023-07-29T01:20:59;18.30;99.90
52127;DHT22;38120;53.176;6.614;2023-07-29T01:23:35;18.30;99.90
52127;DHT22;38120;53.176;6.614;2023-07-29T01:26:02;18.20;99.90
52127;DHT22;38120;53.176;6.614;2023-07-29T01:28:28;18.20;99.90
52127;DHT22;38120;53.176;6.614;2023-07-29T01:31:03;18.10;99.90
52127;DHT22;38120;53.176;6.614;2023-07-29T01:33:44;18.20;99.90
52127;DHT22;38120;53.176;6.614;2023-07-29T01:36:15;18.10;99.90
52127;DHT22;38120;53.176;6.614;2023-07-29T01:38:44;18.00;99.90
52127;DHT22;38120;53.176;6.614;2023-07-29T01:41:10;18.00;99.90
52127;DHT22;38120;53.176;6.614;2023-07-29T01:43:36;18.00;99.90
52127;DHT22;38120;53.176;6.614;2023-07-29T01:46:09;17.90;99.90
52127;DHT22;38120;53.176;6.614;2023-07-29T01:48:35;17.90;99.90
52127;DHT22;38120;53.176;6.614;2023-07-29T01:51:01;17.80;99.90
52127;DHT22;38120;53.176;6.614;2023-07-29T01:53:27;17.80;99.90
52127;DHT22;38120;53.176;6.614;2023-07-29T01:55:52;17.80;99.90
52127;DHT22;38120;53.176;6.614;2023-07-29T01:58:18;17.70;99.90
52127;DHT22;38120;53.176;6.614;2023-07-29T02:00:44;17.70;99.90
52127;DHT22;38120;53.176;6.614;2023-07-29T02:03:10;17.70;99.90
52127;DHT22;38120;53.176;6.614;2023-07-29T02:05:35;17.60;99.90
52127;DHT22;38120;53.176;6.614;2023-07-29T02:08:01;17.60;99.90
52127;DHT22;38120;53.176;6.614;2023-07-29T02:10:27;17.50;99.90
52127;DHT22;38120;53.176;6.614;2023-07-29T02:12:52;17.50;99.90
52127;DHT22;38120;53.176;6.614;2023-07-29T02:15:18;17.50;99.90
52127;DHT22;38120;53.176;6.614;2023-07-29T02:17:44;17.50;99.90
52127;DHT22;38120;53.176;6.614;2023-07-29T02:20:10;17.40;99.90
52127;DHT22;38120;53.176;6.614;2023-07-29T02:22:36;17.40;99.90
52127;DHT22;38120;53.176;6.614;2023-07-29T02:25:02;17.40;99.90
52127;DHT22;38120;53.176;6.614;2023-07-29T02:27:28;17.40;99.90
52127;DHT22;38120;53.176;6.614;2023-07-29T02:29:54;17.30;99.90
52127;DHT22;38120;53.176;6.614;2023-07-29T02:32:21;17.30;99.90
52127;DHT22;38120;53.176;6.614;2023-07-29T02:34:46;17.30;99.90
52127;DHT22;38120;53.176;6.614;2023-07-29T02:37:12;17.30;99.90
52127;DHT22;38120;53.176;6.614;2023-07-29T02:39:38;17.30;99.90
52127;DHT22;38120;53.176;6.614;2023-07-29T02:42:06;17.20;99.90
52127;DHT22;38120;53.176;6.614;2023-07-29T02:44:31;17.30;99.90
52127;DHT22;38120;53.176;6.614;2023-07-29T02:46:57;17.30;99.90
52127;DHT22;38120;53.176;6.614;2023-07-29T02:49:23;17.20;99.90
52127;DHT22;38120;53.176;6.614;2023-07-29T02:51:49;17.20;99.90
52127;DHT22;38120;53.176;6.614;2023-07-29T02:54:14;17.20;99.90
52127;DHT22;38120;53.176;6.614;2023-07-29T02:56:40;17.20;99.90
52127;DHT22;38120;53.176;6.614;2023-07-29T02:59:06;17.20;99.90
52127;DHT22;38120;53.176;6.614;2023-07-29T03:01:31;17.20;99.90
52127;DHT22;38120;53.176;6.614;2023-07-29T03:03:57;17.20;99.90
52127;DHT22;38120;53.176;6.614;2023-07-29T03:06:24;17.20;99.90
52127;DHT22;38120;53.176;6.614;2023-07-29T03:08:49;17.10;99.90
52127;DHT22;38120;53.176;6.614;2023-07-29T03:11:16;17.10;99.90
52127;DHT22;38120;53.176;6.614;2023-07-29T03:13:43;17.10;99.90
52127;DHT22;38120;53.176;6.614;2023-07-29T03:16:13;17.00;99.90
52127;DHT22;38120;53.176;6.614;2023-07-29T03:18:40;17.10;99.90
52127;DHT22;38120;53.176;6.614;2023-07-29T03:21:06;17.00;99.90
52127;DHT22;38120;53.176;6.614;2023-07-29T03:23:33;17.00;99.90
52127;DHT22;38120;53.176;6.614;2023-07-29T03:26:00;17.00;99.90
52127;DHT22;38120;53.176;6.614;2023-07-29T03:28:27;17.00;99.90
52127;DHT22;38120;53.176;6.614;2023-07-29T03:30:54;16.90;99.90
52127;DHT22;38120;53.176;6.614;2023-07-29T03:33:20;16.90;99.90
52127;DHT22;38120;53.176;6.614;2023-07-29T03:35:45;16.90;99.90
52127;DHT22;38120;53.176;6.614;2023-07-29T03:38:11;16.90;99.90
52127;DHT22;38120;53.176;6.614;2023-07-29T03:40:38;16.90;99.90
52127;DHT22;38120;53.176;6.614;2023-07-29T03:43:04;16.90;99.90
52127;DHT22;38120;53.176;6.614;2023-07-29T03:45:30;16.90;99.90
52127;DHT22;38120;53.176;6.614;2023-07-29T03:47:56;16.90;99.90
52127;DHT22;38120;53.176;6.614;2023-07-29T03:50:21;16.80;99.90
52127;DHT22;38120;53.176;6.614;2023-07-29T03:52:47;16.80;99.90
52127;DHT22;38120;53.176;6.614;2023-07-29T03:55:13;16.80;99.90
52127;DHT22;38120;53.176;6.614;2023-07-29T03:57:38;16.80;99.90
52127;DHT22;38120;53.176;6.614;2023-07-29T04:00:05;16.80;99.90
52127;DHT22;38120;53.176;6.614;2023-07-29T04:02:31;16.80;99.90
52127;DHT22;38120;53.176;6.614;2023-07-29T04:04:57;16.70;99.90
52127;DHT22;38120;53.176;6.614;2023-07-29T04:07:22;16.70;99.90
52127;DHT22;38120;53.176;6.614;2023-07-29T04:09:48;16.70;99.90
52127;DHT22;38120;53.176;6.614;2023-07-29T04:12:15;16.70;99.90
52127;DHT22;38120;53.176;6.614;2023-07-29T04:14:40;16.70;99.90
52127;DHT22;38120;53.176;6.614;2023-07-29T04:17:07;16.70;99.90
52127;DHT22;38120;53.176;6.614;2023-07-29T04:19:32;16.70;99.90
52127;DHT22;38120;53.176;6.614;2023-07-29T04:21:58;16.70;99.90
52127;DHT22;38120;53.176;6.614;2023-07-29T04:24:24;16.70;99.90
52127;DHT22;38120;53.176;6.614;2023-07-29T04:26:50;16.70;99.90
52127;DHT22;38120;53.176;6.614;2023-07-29T04:29:16;16.70;99.90
52127;DHT22;38120;53.176;6.614;2023-07-29T04:31:42;16.70;99.90
52127;DHT22;38120;53.176;6.614;2023-07-29T04:34:08;16.70;99.90
52127;DHT22;38120;53.176;6.614;2023-07-29T04:36:34;16.70;99.90
52127;DHT22;38120;53.176;6.614;2023-07-29T04:39:00;16.80;99.90
52127;DHT22;38120;53.176;6.614;2023-07-29T04:41:26;16.80;99.90
52127;DHT22;38120;53.176;6.614;2023-07-29T04:43:51;16.80;99.90
52127;DHT22;38120;53.176;6.614;2023-07-29T04:46:18;16.80;99.90
52127;DHT22;38120;53.176;6.614;2023-07-29T04:48:43;16.90;99.90
52127;DHT22;38120;53.176;6.614;2023-07-29T04:51:09;16.90;99.90
52127;DHT22;38120;53.176;6.614;2023-07-29T04:53:35;16.90;99.90
52127;DHT22;38120;53.176;6.614;2023-07-29T04:56:02;16.90;99.90
52127;DHT22;38120;53.176;6.614;2023-07-29T04:58:28;17.00;99.90
52127;DHT22;38120;53.176;6.614;2023-07-29T05:01:08;17.00;99.90
52127;DHT22;38120;53.176;6.614;2023-07-29T05:03:34;17.00;99.90
52127;DHT22;38120;53.176;6.614;2023-07-29T05:06:00;17.10;99.90
52127;DHT22;38120;53.176;6.614;2023-07-29T05:08:26;17.10;99.90
52127;DHT22;38120;53.176;6.614;2023-07-29T05:10:53;17.10;99.90
52127;DHT22;38120;53.176;6.614;2023-07-29T05:13:20;17.10;99.90
52127;DHT22;38120;53.176;6.614;2023-07-29T05:15:46;17.20;99.90
52127;DHT22;38120;53.176;6.614;2023-07-29T05:18:12;17.10;99.90
52127;DHT22;38120;53.176;6.614;2023-07-29T05:20:38;17.10;99.90
52127;DHT22;38120;53.176;6.614;2023-07-29T05:23:04;17.10;99.90
52127;DHT22;38120;53.176;6.614;2023-07-29T05:25:29;17.20;99.90
52127;DHT22;38120;53.176;6.614;2023-07-29T05:27:55;17.20;99.90
52127;DHT22;38120;53.176;6.614;2023-07-29T05:30:21;17.20;99.90
52127;DHT22;38120;53.176;6.614;2023-07-29T05:32:46;17.20;99.90
52127;DHT22;38120;53.176;6.614;2023-07-29T05:35:12;17.20;99.90
52127;DHT22;38120;53.176;6.614;2023-07-29T05:37:41;17.20;99.90
52127;DHT22;38120;53.176;6.614;2023-07-29T05:40:07;17.20;99.90
52127;DHT22;38120;53.176;6.614;2023-07-29T05:42:34;17.30;99.90
52127;DHT22;38120;53.176;6.614;2023-07-29T05:45:00;17.30;99.90
52127;DHT22;38120;53.176;6.614;2023-07-29T05:47:26;17.30;99.90
52127;DHT22;38120;53.176;6.614;2023-07-29T05:49:52;17.30;99.90
52127;DHT22;38120;53.176;6.614;2023-07-29T05:52:18;17.30;99.90
52127;DHT22;38120;53.176;6.614;2023-07-29T05:54:44;17.30;99.90
52127;DHT22;38120;53.176;6.614;2023-07-29T05:57:11;17.30;99.90
52127;DHT22;38120;53.176;6.614;2023-07-29T05:59:37;17.40;99.90
52127;DHT22;38120;53.176;6.614;2023-07-29T06:02:03;17.40;99.90
52127;DHT22;38120;53.176;6.614;2023-07-29T06:04:29;17.30;99.90
52127;DHT22;38120;53.176;6.614;2023-07-29T06:06:55;17.30;99.90
52127;DHT22;38120;53.176;6.614;2023-07-29T06:09:22;17.30;99.90
52127;DHT22;38120;53.176;6.614;2023-07-29T06:11:48;17.30;99.90
52127;DHT22;38120;53.176;6.614;2023-07-29T06:14:13;17.40;99.90
52127;DHT22;38120;53.176;6.614;2023-07-29T06:16:39;17.40;99.90
52127;DHT22;38120;53.176;6.614;2023-07-29T06:19:04;17.40;99.90
52127;DHT22;38120;53.176;6.614;2023-07-29T06:21:30;17.50;99.90
52127;DHT22;38120;53.176;6.614;2023-07-29T06:23:56;17.50;99.90
52127;DHT22;38120;53.176;6.614;2023-07-29T06:26:22;17.50;99.90
52127;DHT22;38120;53.176;6.614;2023-07-29T06:28:47;17.50;99.90
52127;DHT22;38120;53.176;6.614;2023-07-29T06:31:13;17.60;99.90
52127;DHT22;38120;53.176;6.614;2023-07-29T06:33:39;17.70;99.90
52127;DHT22;38120;53.176;6.614;2023-07-29T06:36:05;17.90;99.90
52127;DHT22;38120;53.176;6.614;2023-07-29T06:38:31;18.00;99.90
52127;DHT22;38120;53.176;6.614;2023-07-29T06:40:56;18.20;99.90
52127;DHT22;38120;53.176;6.614;2023-07-29T06:43:22;18.30;99.90
52127;DHT22;38120;53.176;6.614;2023-07-29T06:45:48;19.10;99.90
52127;DHT22;38120;53.176;6.614;2023-07-29T06:48:14;18.50;99.90
52127;DHT22;38120;53.176;6.614;2023-07-29T06:50:39;18.40;99.90
52127;DHT22;38120;53.176;6.614;2023-07-29T06:53:06;18.40;99.90
52127;DHT22;38120;53.176;6.614;2023-07-29T06:55:31;18.50;99.90
52127;DHT22;38120;53.176;6.614;2023-07-29T06:57:58;18.40;99.90
52127;DHT22;38120;53.176;6.614;2023-07-29T07:00:24;18.50;99.90
52127;DHT22;38120;53.176;6.614;2023-07-29T07:02:50;18.60;99.90
52127;DHT22;38120;53.176;6.614;2023-07-29T07:05:15;18.60;99.90
52127;DHT22;38120;53.176;6.614;2023-07-29T07:07:41;18.60;99.90
52127;DHT22;38120;53.176;6.614;2023-07-29T07:10:07;18.70;99.90
52127;DHT22;38120;53.176;6.614;2023-07-29T07:12:33;18.70;99.90
52127;DHT22;38120;53.176;6.614;2023-07-29T07:15:00;18.70;99.90
52127;DHT22;38120;53.176;6.614;2023-07-29T07:17:26;18.80;99.90
52127;DHT22;38120;53.176;6.614;2023-07-29T07:19:51;18.80;99.90
52127;DHT22;38120;53.176;6.614;2023-07-29T07:22:17;18.80;99.90
52127;DHT22;38120;53.176;6.614;2023-07-29T07:24:43;18.80;99.90
52127;DHT22;38120;53.176;6.614;2023-07-29T07:27:09;18.80;99.90
52127;DHT22;38120;53.176;6.614;2023-07-29T07:29:35;18.90;99.90
52127;DHT22;38120;53.176;6.614;2023-07-29T07:32:00;18.90;99.90
52127;DHT22;38120;53.176;6.614;2023-07-29T07:34:26;18.80;99.90
52127;DHT22;38120;53.176;6.614;2023-07-29T07:36:52;18.80;99.90
52127;DHT22;38120;53.176;6.614;2023-07-29T07:39:17;18.80;99.90
52127;DHT22;38120;53.176;6.614;2023-07-29T07:41:43;19.00;99.90
52127;DHT22;38120;53.176;6.614;2023-07-29T07:44:09;19.00;99.90
52127;DHT22;38120;53.176;6.614;2023-07-29T07:46:36;19.10;99.90
52127;DHT22;38120;53.176;6.614;2023-07-29T07:49:01;19.40;99.90
52127;DHT22;38120;53.176;6.614;2023-07-29T07:51:27;19.50;99.90
52127;DHT22;38120;53.176;6.614;2023-07-29T07:53:53;19.50;99.90
52127;DHT22;38120;53.176;6.614;2023-07-29T07:56:18;19.50;99.90
52127;DHT22;38120;53.176;6.614;2023-07-29T07:58:44;19.70;99.90
52127;DHT22;38120;53.176;6.614;2023-07-29T08:01:10;20.00;99.90
52127;DHT22;38120;53.176;6.614;2023-07-29T08:03:37;20.10;99.90
52127;DHT22;38120;53.176;6.614;2023-07-29T08:06:02;20.00;99.90
52127;DHT22;38120;53.176;6.614;2023-07-29T08:08:29;20.30;99.90
52127;DHT22;38120;53.176;6.614;2023-07-29T08:10:56;20.30;99.90
52127;DHT22;38120;53.176;6.614;2023-07-29T08:13:25;20.30;99.90
52127;DHT22;38120;53.176;6.614;2023-07-29T08:15:52;20.20;99.90
52127;DHT22;38120;53.176;6.614;2023-07-29T08:18:18;20.00;99.90
52127;DHT22;38120;53.176;6.614;2023-07-29T08:20:54;19.80;99.90
52127;DHT22;38120;53.176;6.614;2023-07-29T08:23:21;19.70;99.90
52127;DHT22;38120;53.176;6.614;2023-07-29T08:25:55;19.60;99.90
52127;DHT22;38120;53.176;6.614;2023-07-29T08:28:24;19.90;99.90
52127;DHT22;38120;53.176;6.614;2023-07-29T08:30:50;20.10;99.90
52127;DHT22;38120;53.176;6.614;2023-07-29T08:33:16;20.30;99.90
52127;DHT22;38120;53.176;6.614;2023-07-29T08:35:42;20.40;99.90
52127;DHT22;38120;53.176;6.614;2023-07-29T08:38:07;20.50;99.90
52127;DHT22;38120;53.176;6.614;2023-07-29T08:40:35;20.40;99.90
52127;DHT22;38120;53.176;6.614;2023-07-29T08:43:05;20.30;99.90
52127;DHT22;38120;53.176;6.614;2023-07-29T08:45:36;20.30;99.90
52127;DHT22;38120;53.176;6.614;2023-07-29T08:48:08;20.30;99.90
52127;DHT22;38120;53.176;6.614;2023-07-29T08:50:36;20.20;99.90
52127;DHT22;38120;53.176;6.614;2023-07-29T08:53:05;20.00;99.90
52127;DHT22;38120;53.176;6.614;2023-07-29T08:55:32;21.20;99.90
52127;DHT22;38120;53.176;6.614;2023-07-29T08:57:59;19.90;99.90
52127;DHT22;38120;53.176;6.614;2023-07-29T09:00:25;19.90;99.90
52127;DHT22;38120;53.176;6.614;2023-07-29T09:02:52;20.00;99.90
52127;DHT22;38120;53.176;6.614;2023-07-29T09:05:19;20.10;99.90
52127;DHT22;38120;53.176;6.614;2023-07-29T09:07:46;20.30;99.90
52127;DHT22;38120;53.176;6.614;2023-07-29T09:10:13;20.50;99.90
52127;DHT22;38120;53.176;6.614;2023-07-29T09:12:40;20.60;99.90
52127;DHT22;38120;53.176;6.614;2023-07-29T09:15:06;20.60;99.90
52127;DHT22;38120;53.176;6.614;2023-07-29T09:17:35;20.50;99.90
52127;DHT22;38120;53.176;6.614;2023-07-29T09:20:01;20.40;99.90
52127;DHT22;38120;53.176;6.614;2023-07-29T09:22:27;20.30;99.90
52127;DHT22;38120;53.176;6.614;2023-07-29T09:24:53;20.40;99.90
52127;DHT22;38120;53.176;6.614;2023-07-29T09:27:29;20.40;99.90
52127;DHT22;38120;53.176;6.614;2023-07-29T09:29:57;20.60;99.90
52127;DHT22;38120;53.176;6.614;2023-07-29T09:32:24;20.80;99.90
52127;DHT22;38120;53.176;6.614;2023-07-29T09:34:51;20.80;99.90
52127;DHT22;38120;53.176;6.614;2023-07-29T09:37:20;20.90;99.90
52127;DHT22;38120;53.176;6.614;2023-07-29T09:39:47;20.80;99.90
52127;DHT22;38120;53.176;6.614;2023-07-29T09:42:25;20.70;99.90
52127;DHT22;38120;53.176;6.614;2023-07-29T09:44:51;20.50;99.90
52127;DHT22;38120;53.176;6.614;2023-07-29T09:47:25;21.00;99.90
52127;DHT22;38120;53.176;6.614;2023-07-29T09:49:51;21.20;99.90
52127;DHT22;38120;53.176;6.614;2023-07-29T09:52:18;21.10;99.90
52127;DHT22;38120;53.176;6.614;2023-07-29T09:54:44;21.20;99.90
52127;DHT22;38120;53.176;6.614;2023-07-29T09:57:12;21.10;99.90
52127;DHT22;38120;53.176;6.614;2023-07-29T09:59:39;21.20;99.90
52127;DHT22;38120;53.176;6.614;2023-07-29T10:02:04;21.70;99.90
52127;DHT22;38120;53.176;6.614;2023-07-29T10:04:34;22.10;99.90
52127;DHT22;38120;53.176;6.614;2023-07-29T10:07:00;22.10;99.90
52127;DHT22;38120;53.176;6.614;2023-07-29T10:09:27;21.90;99.90
52127;DHT22;38120;53.176;6.614;2023-07-29T10:11:54;22.00;99.90
52127;DHT22;38120;53.176;6.614;2023-07-29T10:14:20;22.10;99.90
52127;DHT22;38120;53.176;6.614;2023-07-29T10:16:47;22.10;99.90
52127;DHT22;38120;53.176;6.614;2023-07-29T10:19:13;22.40;99.90
52127;DHT22;38120;53.176;6.614;2023-07-29T10:21:41;22.70;99.90
52127;DHT22;38120;53.176;6.614;2023-07-29T10:24:15;22.60;99.90
52127;DHT22;38120;53.176;6.614;2023-07-29T10:26:46;22.60;99.90
52127;DHT22;38120;53.176;6.614;2023-07-29T10:29:14;22.50;99.90
52127;DHT22;38120;53.176;6.614;2023-07-29T10:31:43;22.40;99.90
52127;DHT22;38120;53.176;6.614;2023-07-29T10:34:10;22.40;99.90
52127;DHT22;38120;53.176;6.614;2023-07-29T10:36:37;22.50;99.90
52127;DHT22;38120;53.176;6.614;2023-07-29T10:39:03;22.60;99.90
52127;DHT22;38120;53.176;6.614;2023-07-29T10:41:57;22.60;99.90
52127;DHT22;38120;53.176;6.614;2023-07-29T10:44:56;22.30;99.90
52127;DHT22;38120;53.176;6.614;2023-07-29T10:47:27;22.60;99.90
52127;DHT22;38120;53.176;6.614;2023-07-29T10:49:57;22.70;99.90
52127;DHT22;38120;53.176;6.614;2023-07-29T10:54:59;22.60;99.90
52127;DHT22;38120;53.176;6.614;2023-07-29T10:57:35;22.70;99.90
52127;DHT22;38120;53.176;6.614;2023-07-29T11:00:02;22.60;99.90
52127;DHT22;38120;53.176;6.614;2023-07-29T11:02:38;22.60;99.90
52127;DHT22;38120;53.176;6.614;2023-07-29T11:05:16;22.30;99.90
52127;DHT22;38120;53.176;6.614;2023-07-29T11:07:48;22.10;99.90
52127;DHT22;38120;53.176;6.614;2023-07-29T11:10:15;21.90;99.90
52127;DHT22;38120;53.176;6.614;2023-07-29T11:12:49;21.80;99.90
52127;DHT22;38120;53.176;6.614;2023-07-29T11:15:25;21.60;99.90
52127;DHT22;38120;53.176;6.614;2023-07-29T11:18:02;21.10;99.90
52127;DHT22;38120;53.176;6.614;2023-07-29T11:20:30;20.60;99.90
52127;DHT22;38120;53.176;6.614;2023-07-29T11:22:57;20.70;99.90
52127;DHT22;38120;53.176;6.614;2023-07-29T11:25:24;20.00;99.90
52127;DHT22;38120;53.176;6.614;2023-07-29T11:27:55;20.50;99.90
52127;DHT22;38120;53.176;6.614;2023-07-29T11:30:22;20.40;99.90
52127;DHT22;38120;53.176;6.614;2023-07-29T11:32:48;20.40;99.90
52127;DHT22;38120;53.176;6.614;2023-07-29T11:35:18;20.30;99.90
52127;DHT22;38120;53.176;6.614;2023-07-29T11:37:51;20.40;99.90
52127;DHT22;38120;53.176;6.614;2023-07-29T11:40:18;20.40;99.90
52127;DHT22;38120;53.176;6.614;2023-07-29T11:42:48;20.60;99.90
52127;DHT22;38120;53.176;6.614;2023-07-29T11:45:19;20.40;99.90
52127;DHT22;38120;53.176;6.614;2023-07-29T11:47:45;20.40;99.90
52127;DHT22;38120;53.176;6.614;2023-07-29T11:50:11;20.70;99.90
52127;DHT22;38120;53.176;6.614;2023-07-29T11:52:44;21.10;99.90
52127;DHT22;38120;53.176;6.614;2023-07-29T11:55:11;21.10;99.90
52127;DHT22;38120;53.176;6.614;2023-07-29T11:57:38;21.50;99.90
52127;DHT22;38120;53.176;6.614;2023-07-29T12:00:06;21.70;99.90
52127;DHT22;38120;53.176;6.614;2023-07-29T12:02:32;22.00;99.90
52127;DHT22;38120;53.176;6.614;2023-07-29T12:05:03;21.80;99.90
52127;DHT22;38120;53.176;6.614;2023-07-29T12:07:29;21.80;99.90
52127;DHT22;38120;53.176;6.614;2023-07-29T12:09:55;22.20;99.90
52127;DHT22;38120;53.176;6.614;2023-07-29T12:12:26;21.70;99.90
52127;DHT22;38120;53.176;6.614;2023-07-29T12:14:54;21.50;99.90
52127;DHT22;38120;53.176;6.614;2023-07-29T12:17:23;21.40;99.90
52127;DHT22;38120;53.176;6.614;2023-07-29T12:19:49;21.50;99.90
52127;DHT22;38120;53.176;6.614;2023-07-29T12:22:20;21.40;99.90
52127;DHT22;38120;53.176;6.614;2023-07-29T12:24:45;21.40;99.90
52127;DHT22;38120;53.176;6.614;2023-07-29T12:27:12;21.50;99.90
52127;DHT22;38120;53.176;6.614;2023-07-29T12:29:43;21.50;99.90
52127;DHT22;38120;53.176;6.614;2023-07-29T12:32:11;21.60;99.90
52127;DHT22;38120;53.176;6.614;2023-07-29T12:34:38;22.10;99.90
52127;DHT22;38120;53.176;6.614;2023-07-29T12:37:05;22.00;99.90
52127;DHT22;38120;53.176;6.614;2023-07-29T12:39:39;22.00;99.90
52127;DHT22;38120;53.176;6.614;2023-07-29T12:42:05;22.40;99.90
52127;DHT22;38120;53.176;6.614;2023-07-29T12:44:33;22.60;99.90
52127;DHT22;38120;53.176;6.614;2023-07-29T12:47:01;22.30;99.90
52127;DHT22;38120;53.176;6.614;2023-07-29T12:49:29;21.90;99.90
52127;DHT22;38120;53.176;6.614;2023-07-29T12:51:58;21.60;99.90
52127;DHT22;38120;53.176;6.614;2023-07-29T12:54:24;21.40;99.90
52127;DHT22;38120;53.176;6.614;2023-07-29T12:56:51;21.20;99.90
52127;DHT22;38120;53.176;6.614;2023-07-29T12:59:16;21.10;99.90
52127;DHT22;38120;53.176;6.614;2023-07-29T13:01:42;21.30;99.90
52127;DHT22;38120;53.176;6.614;2023-07-29T13:04:09;21.60;99.90
52127;DHT22;38120;53.176;6.614;2023-07-29T13:06:35;21.80;99.90
52127;DHT22;38120;53.176;6.614;2023-07-29T13:09:01;21.50;99.90
52127;DHT22;38120;53.176;6.614;2023-07-29T13:11:26;21.50;99.90
52127;DHT22;38120;53.176;6.614;2023-07-29T13:13:52;21.60;99.90
52127;DHT22;38120;53.176;6.614;2023-07-29T13:16:18;21.60;99.90
52127;DHT22;38120;53.176;6.614;2023-07-29T13:18:44;21.70;99.90
52127;DHT22;38120;53.176;6.614;2023-07-29T13:21:10;21.70;99.90
52127;DHT22;38120;53.176;6.614;2023-07-29T13:23:36;21.60;99.90
52127;DHT22;38120;53.176;6.614;2023-07-29T13:26:02;21.30;99.90
52127;DHT22;38120;53.176;6.614;2023-07-29T13:28:27;21.00;99.90
52127;DHT22;38120;53.176;6.614;2023-07-29T13:30:53;20.80;99.90
52127;DHT22;38120;53.176;6.614;2023-07-29T13:33:19;20.50;99.90
52127;DHT22;38120;53.176;6.614;2023-07-29T13:35:45;20.60;99.90
52127;DHT22;38120;53.176;6.614;2023-07-29T13:38:10;20.90;99.90
52127;DHT22;38120;53.176;6.614;2023-07-29T13:40:36;21.10;99.90
52127;DHT22;38120;53.176;6.614;2023-07-29T13:43:02;21.40;99.90
52127;DHT22;38120;53.176;6.614;2023-07-29T13:45:28;21.40;99.90
52127;DHT22;38120;53.176;6.614;2023-07-29T13:47:53;21.00;99.90
52127;DHT22;38120;53.176;6.614;2023-07-29T13:50:19;20.70;99.90
52127;DHT22;38120;53.176;6.614;2023-07-29T13:52:45;20.50;99.90
52127;DHT22;38120;53.176;6.614;2023-07-29T13:55:11;20.40;99.90
52127;DHT22;38120;53.176;6.614;2023-07-29T13:57:38;20.20;99.90
52127;DHT22;38120;53.176;6.614;2023-07-29T14:00:09;20.20;99.90
52127;DHT22;38120;53.176;6.614;2023-07-29T14:02:35;20.00;99.90
52127;DHT22;38120;53.176;6.614;2023-07-29T14:05:01;20.00;99.90
52127;DHT22;38120;53.176;6.614;2023-07-29T14:07:27;20.10;99.90
52127;DHT22;38120;53.176;6.614;2023-07-29T14:09:52;20.20;99.90
52127;DHT22;38120;53.176;6.614;2023-07-29T14:12:18;20.50;99.90
52127;DHT22;38120;53.176;6.614;2023-07-29T14:14:44;20.80;99.90
52127;DHT22;38120;53.176;6.614;2023-07-29T14:17:09;20.90;99.90
52127;DHT22;38120;53.176;6.614;2023-07-29T14:19:36;21.20;99.90
52127;DHT22;38120;53.176;6.614;2023-07-29T14:22:02;21.50;99.90
52127;DHT22;38120;53.176;6.614;2023-07-29T14:24:28;21.40;99.90
52127;DHT22;38120;53.176;6.614;2023-07-29T14:26:53;21.20;99.90
52127;DHT22;38120;53.176;6.614;2023-07-29T14:29:19;21.20;99.90
52127;DHT22;38120;53.176;6.614;2023-07-29T14:31:45;21.10;99.90
52127;DHT22;38120;53.176;6.614;2023-07-29T14:34:10;21.00;99.90
52127;DHT22;38120;53.176;6.614;2023-07-29T14:36:37;21.20;99.90
52127;DHT22;38120;53.176;6.614;2023-07-29T14:39:02;21.80;99.90
52127;DHT22;38120;53.176;6.614;2023-07-29T14:41:30;21.80;99.90
52127;DHT22;38120;53.176;6.614;2023-07-29T14:43:56;21.50;99.90
52127;DHT22;38120;53.176;6.614;2023-07-29T14:46:22;21.40;99.90
52127;DHT22;38120;53.176;6.614;2023-07-29T14:48:47;21.20;99.90
52127;DHT22;38120;53.176;6.614;2023-07-29T14:51:14;21.30;99.90
52127;DHT22;38120;53.176;6.614;2023-07-29T14:53:39;21.60;99.90
52127;DHT22;38120;53.176;6.614;2023-07-29T14:56:05;21.90;99.90
52127;DHT22;38120;53.176;6.614;2023-07-29T14:58:31;22.20;99.90
52127;DHT22;38120;53.176;6.614;2023-07-29T15:00:57;21.80;99.90
52127;DHT22;38120;53.176;6.614;2023-07-29T15:03:24;21.60;99.90
52127;DHT22;38120;53.176;6.614;2023-07-29T15:05:50;21.40;99.90
52127;DHT22;38120;53.176;6.614;2023-07-29T15:08:16;21.20;99.90
52127;DHT22;38120;53.176;6.614;2023-07-29T15:10:45;21.10;99.90
52127;DHT22;38120;53.176;6.614;2023-07-29T15:13:11;21.30;99.90
52127;DHT22;38120;53.176;6.614;2023-07-29T15:15:41;21.20;99.90
52127;DHT22;38120;53.176;6.614;2023-07-29T15:18:07;21.50;99.90
52127;DHT22;38120;53.176;6.614;2023-07-29T15:20:32;21.60;99.90
52127;DHT22;38120;53.176;6.614;2023-07-29T15:22:58;22.10;99.90
52127;DHT22;38120;53.176;6.614;2023-07-29T15:25:24;22.00;99.90
52127;DHT22;38120;53.176;6.614;2023-07-29T15:27:50;21.70;99.90
52127;DHT22;38120;53.176;6.614;2023-07-29T15:30:15;21.50;99.90
52127;DHT22;38120;53.176;6.614;2023-07-29T15:32:41;21.90;99.90